sensor_id;sensor_type;location;lat;lon;timestamp;P1;durP1;ratioP1;P2;durP2;ratioP2
64738;SDS011;51175;51.186;0.276;2023-12-07T00:00:27;36.90;;;20.40;;
64738;SDS011;51175;51.186;0.276;2023-12-07T00:00:57;32.65;;;19.77;;
64738;SDS011;51175;51.186;0.276;2023-12-07T00:01:28;31.40;;;19.70;;
64738;SDS011;51175;51.186;0.276;2023-12-07T00:02:03;30.77;;;19.60;;
64738;SDS011;51175;51.186;0.276;2023-12-07T00:02:33;29.65;;;18.27;;
64738;SDS011;51175;51.186;0.276;2023-12-07T00:03:04;31.33;;;20.17;;
64738;SDS011;51175;51.186;0.276;2023-12-07T00:03:36;33.53;;;20.77;;
64738;SDS011;51175;51.186;0.276;2023-12-07T00:04:07;30.05;;;19.80;;
64738;SDS011;51175;51.186;0.276;2023-12-07T00:04:37;35.55;;;20.15;;
64738;SDS011;51175;51.186;0.276;2023-12-07T00:05:20;26.92;;;18.15;;
64738;SDS011;51175;51.186;0.276;2023-12-07T00:05:51;30.77;;;19.13;;
64738;SDS011;51175;51.186;0.276;2023-12-07T00:06:22;28.15;;;17.80;;
64738;SDS011;51175;51.186;0.276;2023-12-07T00:06:52;32.05;;;18.48;;
64738;SDS011;51175;51.186;0.276;2023-12-07T00:07:23;26.85;;;18.25;;
64738;SDS011;51175;51.186;0.276;2023-12-07T00:07:55;30.27;;;19.55;;
64738;SDS011;51175;51.186;0.276;2023-12-07T00:08:25;29.05;;;17.60;;
64738;SDS011;51175;51.186;0.276;2023-12-07T00:08:56;21.35;;;17.50;;
64738;SDS011;51175;51.186;0.276;2023-12-07T00:09:28;25.17;;;17.42;;
64738;SDS011;51175;51.186;0.276;2023-12-07T00:09:58;32.42;;;18.00;;
64738;SDS011;51175;51.186;0.276;2023-12-07T00:10:29;25.42;;;15.85;;
64738;SDS011;51175;51.186;0.276;2023-12-07T00:10:59;26.33;;;16.20;;
64738;SDS011;51175;51.186;0.276;2023-12-07T00:11:30;29.95;;;16.75;;
64738;SDS011;51175;51.186;0.276;2023-12-07T00:12:02;24.17;;;16.08;;
64738;SDS011;51175;51.186;0.276;2023-12-07T00:12:33;22.23;;;15.68;;
64738;SDS011;51175;51.186;0.276;2023-12-07T00:13:04;29.90;;;17.88;;
64738;SDS011;51175;51.186;0.276;2023-12-07T00:13:35;20.50;;;15.00;;
64738;SDS011;51175;51.186;0.276;2023-12-07T00:14:05;23.50;;;16.42;;
64738;SDS011;51175;51.186;0.276;2023-12-07T00:14:36;36.53;;;20.85;;
64738;SDS011;51175;51.186;0.276;2023-12-07T00:15:06;31.60;;;21.10;;
64738;SDS011;51175;51.186;0.276;2023-12-07T00:15:37;30.15;;;21.52;;
64738;SDS011;51175;51.186;0.276;2023-12-07T00:16:08;34.67;;;20.50;;
64738;SDS011;51175;51.186;0.276;2023-12-07T00:16:38;30.05;;;21.02;;
64738;SDS011;51175;51.186;0.276;2023-12-07T00:17:12;26.10;;;19.77;;
64738;SDS011;51175;51.186;0.276;2023-12-07T00:17:44;38.70;;;22.65;;
64738;SDS011;51175;51.186;0.276;2023-12-07T00:18:17;34.42;;;20.73;;
64738;SDS011;51175;51.186;0.276;2023-12-07T00:18:47;43.30;;;24.25;;
64738;SDS011;51175;51.186;0.276;2023-12-07T00:19:19;34.33;;;20.25;;
64738;SDS011;51175;51.186;0.276;2023-12-07T00:19:50;32.97;;;22.98;;
64738;SDS011;51175;51.186;0.276;2023-12-07T00:20:23;33.60;;;22.02;;
64738;SDS011;51175;51.186;0.276;2023-12-07T00:20:55;39.92;;;20.98;;
64738;SDS011;51175;51.186;0.276;2023-12-07T00:21:26;35.38;;;21.33;;
64738;SDS011;51175;51.186;0.276;2023-12-07T00:21:56;40.15;;;21.38;;
64738;SDS011;51175;51.186;0.276;2023-12-07T00:22:27;27.00;;;19.15;;
64738;SDS011;51175;51.186;0.276;2023-12-07T00:22:59;29.73;;;19.25;;
64738;SDS011;51175;51.186;0.276;2023-12-07T00:23:30;36.15;;;20.40;;
64738;SDS011;51175;51.186;0.276;2023-12-07T00:24:00;36.40;;;21.90;;
64738;SDS011;51175;51.186;0.276;2023-12-07T00:24:31;28.50;;;19.05;;
64738;SDS011;51175;51.186;0.276;2023-12-07T00:25:01;25.50;;;18.90;;
64738;SDS011;51175;51.186;0.276;2023-12-07T00:25:32;29.80;;;19.23;;
64738;SDS011;51175;51.186;0.276;2023-12-07T00:26:04;30.17;;;18.95;;
64738;SDS011;51175;51.186;0.276;2023-12-07T00:26:34;29.75;;;17.30;;
64738;SDS011;51175;51.186;0.276;2023-12-07T00:27:05;23.20;;;17.05;;
64738;SDS011;51175;51.186;0.276;2023-12-07T00:27:35;26.75;;;17.50;;
64738;SDS011;51175;51.186;0.276;2023-12-07T00:28:06;25.48;;;17.17;;
64738;SDS011;51175;51.186;0.276;2023-12-07T00:28:36;25.83;;;15.80;;
64738;SDS011;51175;51.186;0.276;2023-12-07T00:29:07;25.42;;;16.48;;
64738;SDS011;51175;51.186;0.276;2023-12-07T00:29:37;25.63;;;16.52;;
64738;SDS011;51175;51.186;0.276;2023-12-07T00:30:09;27.20;;;17.45;;
64738;SDS011;51175;51.186;0.276;2023-12-07T00:30:40;22.92;;;16.73;;
64738;SDS011;51175;51.186;0.276;2023-12-07T00:31:12;24.42;;;16.35;;
64738;SDS011;51175;51.186;0.276;2023-12-07T00:31:43;27.00;;;16.85;;
64738;SDS011;51175;51.186;0.276;2023-12-07T00:32:16;25.25;;;16.52;;
64738;SDS011;51175;51.186;0.276;2023-12-07T00:32:47;33.25;;;18.00;;
64738;SDS011;51175;51.186;0.276;2023-12-07T00:33:18;29.15;;;17.17;;
64738;SDS011;51175;51.186;0.276;2023-12-07T00:33:48;30.65;;;15.43;;
64738;SDS011;51175;51.186;0.276;2023-12-07T00:34:18;30.92;;;17.98;;
64738;SDS011;51175;51.186;0.276;2023-12-07T00:34:49;23.10;;;17.10;;
64738;SDS011;51175;51.186;0.276;2023-12-07T00:35:21;27.30;;;16.50;;
64738;SDS011;51175;51.186;0.276;2023-12-07T00:35:52;29.60;;;17.58;;
64738;SDS011;51175;51.186;0.276;2023-12-07T00:36:22;28.55;;;16.92;;
64738;SDS011;51175;51.186;0.276;2023-12-07T00:36:53;25.90;;;17.20;;
64738;SDS011;51175;51.186;0.276;2023-12-07T00:37:24;24.77;;;16.45;;
64738;SDS011;51175;51.186;0.276;2023-12-07T00:37:55;23.83;;;15.60;;
64738;SDS011;51175;51.186;0.276;2023-12-07T00:38:34;24.80;;;17.13;;
64738;SDS011;51175;51.186;0.276;2023-12-07T00:39:06;26.90;;;15.88;;
64738;SDS011;51175;51.186;0.276;2023-12-07T00:39:40;22.05;;;15.75;;
64738;SDS011;51175;51.186;0.276;2023-12-07T00:40:12;27.40;;;17.50;;
64738;SDS011;51175;51.186;0.276;2023-12-07T00:40:42;25.58;;;17.27;;
64738;SDS011;51175;51.186;0.276;2023-12-07T00:41:13;31.17;;;17.98;;
64738;SDS011;51175;51.186;0.276;2023-12-07T00:41:43;26.75;;;18.05;;
64738;SDS011;51175;51.186;0.276;2023-12-07T00:42:15;25.10;;;17.10;;
64738;SDS011;51175;51.186;0.276;2023-12-07T00:42:45;26.65;;;17.60;;
64738;SDS011;51175;51.186;0.276;2023-12-07T00:43:24;24.17;;;17.25;;
64738;SDS011;51175;51.186;0.276;2023-12-07T00:43:55;25.58;;;15.48;;
64738;SDS011;51175;51.186;0.276;2023-12-07T00:44:26;28.75;;;16.77;;
64738;SDS011;51175;51.186;0.276;2023-12-07T00:44:56;24.75;;;16.50;;
64738;SDS011;51175;51.186;0.276;2023-12-07T00:45:27;26.20;;;17.15;;
64738;SDS011;51175;51.186;0.276;2023-12-07T00:45:57;26.48;;;16.08;;
64738;SDS011;51175;51.186;0.276;2023-12-07T00:46:28;30.52;;;17.73;;
64738;SDS011;51175;51.186;0.276;2023-12-07T00:46:59;25.45;;;18.27;;
64738;SDS011;51175;51.186;0.276;2023-12-07T00:47:29;27.38;;;16.88;;
64738;SDS011;51175;51.186;0.276;2023-12-07T00:48:00;27.65;;;18.05;;
64738;SDS011;51175;51.186;0.276;2023-12-07T00:48:30;26.92;;;17.45;;
64738;SDS011;51175;51.186;0.276;2023-12-07T00:49:00;23.30;;;16.52;;
64738;SDS011;51175;51.186;0.276;2023-12-07T00:49:32;26.60;;;16.10;;
64738;SDS011;51175;51.186;0.276;2023-12-07T00:50:03;25.70;;;18.05;;
64738;SDS011;51175;51.186;0.276;2023-12-07T00:50:34;27.20;;;16.63;;
64738;SDS011;51175;51.186;0.276;2023-12-07T00:51:04;29.33;;;15.35;;
64738;SDS011;51175;51.186;0.276;2023-12-07T00:51:36;26.02;;;18.23;;
64738;SDS011;51175;51.186;0.276;2023-12-07T00:52:06;20.02;;;15.70;;
64738;SDS011;51175;51.186;0.276;2023-12-07T00:52:37;28.15;;;20.45;;
64738;SDS011;51175;51.186;0.276;2023-12-07T00:53:07;25.60;;;17.08;;
64738;SDS011;51175;51.186;0.276;2023-12-07T00:53:39;26.50;;;16.63;;
64738;SDS011;51175;51.186;0.276;2023-12-07T00:54:09;26.77;;;17.55;;
64738;SDS011;51175;51.186;0.276;2023-12-07T00:54:40;26.42;;;17.02;;
64738;SDS011;51175;51.186;0.276;2023-12-07T00:55:10;31.88;;;16.80;;
64738;SDS011;51175;51.186;0.276;2023-12-07T00:55:41;25.90;;;16.23;;
64738;SDS011;51175;51.186;0.276;2023-12-07T00:56:11;32.22;;;17.35;;
64738;SDS011;51175;51.186;0.276;2023-12-07T00:56:42;21.77;;;15.73;;
64738;SDS011;51175;51.186;0.276;2023-12-07T00:57:12;31.63;;;16.38;;
64738;SDS011;51175;51.186;0.276;2023-12-07T00:57:43;24.40;;;16.27;;
64738;SDS011;51175;51.186;0.276;2023-12-07T00:58:13;26.05;;;15.85;;
64738;SDS011;51175;51.186;0.276;2023-12-07T00:58:44;26.88;;;15.45;;
64738;SDS011;51175;51.186;0.276;2023-12-07T00:59:14;27.88;;;15.80;;
64738;SDS011;51175;51.186;0.276;2023-12-07T00:59:45;22.65;;;14.65;;
64738;SDS011;51175;51.186;0.276;2023-12-07T01:00:15;25.35;;;15.93;;
64738;SDS011;51175;51.186;0.276;2023-12-07T01:00:47;27.25;;;16.08;;
64738;SDS011;51175;51.186;0.276;2023-12-07T01:01:18;23.10;;;14.85;;
64738;SDS011;51175;51.186;0.276;2023-12-07T01:01:48;24.13;;;15.20;;
64738;SDS011;51175;51.186;0.276;2023-12-07T01:02:19;23.75;;;14.80;;
64738;SDS011;51175;51.186;0.276;2023-12-07T01:02:49;23.33;;;14.45;;
64738;SDS011;51175;51.186;0.276;2023-12-07T01:03:19;26.42;;;13.90;;
64738;SDS011;51175;51.186;0.276;2023-12-07T01:03:51;21.23;;;12.65;;
64738;SDS011;51175;51.186;0.276;2023-12-07T01:04:21;20.13;;;13.68;;
64738;SDS011;51175;51.186;0.276;2023-12-07T01:04:52;20.77;;;13.68;;
64738;SDS011;51175;51.186;0.276;2023-12-07T01:05:22;19.65;;;13.75;;
64738;SDS011;51175;51.186;0.276;2023-12-07T01:05:53;24.15;;;13.75;;
64738;SDS011;51175;51.186;0.276;2023-12-07T01:06:24;22.08;;;12.95;;
64738;SDS011;51175;51.186;0.276;2023-12-07T01:06:55;15.95;;;10.75;;
64738;SDS011;51175;51.186;0.276;2023-12-07T01:07:26;17.25;;;12.38;;
64738;SDS011;51175;51.186;0.276;2023-12-07T01:07:56;24.17;;;11.75;;
64738;SDS011;51175;51.186;0.276;2023-12-07T01:08:27;21.50;;;13.90;;
64738;SDS011;51175;51.186;0.276;2023-12-07T01:08:57;24.15;;;15.27;;
64738;SDS011;51175;51.186;0.276;2023-12-07T01:09:28;27.40;;;15.13;;
64738;SDS011;51175;51.186;0.276;2023-12-07T01:09:58;20.00;;;13.48;;
64738;SDS011;51175;51.186;0.276;2023-12-07T01:10:29;20.58;;;12.77;;
64738;SDS011;51175;51.186;0.276;2023-12-07T01:10:59;31.83;;;15.80;;
64738;SDS011;51175;51.186;0.276;2023-12-07T01:11:32;21.02;;;13.13;;
64738;SDS011;51175;51.186;0.276;2023-12-07T01:12:02;26.50;;;13.15;;
64738;SDS011;51175;51.186;0.276;2023-12-07T01:12:34;21.58;;;13.25;;
64738;SDS011;51175;51.186;0.276;2023-12-07T01:13:05;22.27;;;13.32;;
64738;SDS011;51175;51.186;0.276;2023-12-07T01:13:37;22.45;;;14.20;;
64738;SDS011;51175;51.186;0.276;2023-12-07T01:14:07;19.23;;;12.88;;
64738;SDS011;51175;51.186;0.276;2023-12-07T01:14:38;24.23;;;12.27;;
64738;SDS011;51175;51.186;0.276;2023-12-07T01:15:08;24.48;;;14.13;;
64738;SDS011;51175;51.186;0.276;2023-12-07T01:15:39;23.65;;;14.13;;
64738;SDS011;51175;51.186;0.276;2023-12-07T01:16:09;24.25;;;14.55;;
64738;SDS011;51175;51.186;0.276;2023-12-07T01:16:39;25.67;;;15.52;;
64738;SDS011;51175;51.186;0.276;2023-12-07T01:17:10;22.77;;;14.70;;
64738;SDS011;51175;51.186;0.276;2023-12-07T01:17:40;25.45;;;16.08;;
64738;SDS011;51175;51.186;0.276;2023-12-07T01:18:11;23.20;;;14.25;;
64738;SDS011;51175;51.186;0.276;2023-12-07T01:18:42;25.98;;;16.90;;
64738;SDS011;51175;51.186;0.276;2023-12-07T01:19:14;26.75;;;16.08;;
64738;SDS011;51175;51.186;0.276;2023-12-07T01:19:44;23.15;;;15.30;;
64738;SDS011;51175;51.186;0.276;2023-12-07T01:20:15;25.35;;;15.82;;
64738;SDS011;51175;51.186;0.276;2023-12-07T01:20:47;30.10;;;15.43;;
64738;SDS011;51175;51.186;0.276;2023-12-07T01:21:18;25.40;;;15.52;;
64738;SDS011;51175;51.186;0.276;2023-12-07T01:21:48;23.88;;;14.80;;
64738;SDS011;51175;51.186;0.276;2023-12-07T01:22:18;22.30;;;13.65;;
64738;SDS011;51175;51.186;0.276;2023-12-07T01:22:50;29.15;;;15.63;;
64738;SDS011;51175;51.186;0.276;2023-12-07T01:23:21;22.02;;;13.45;;
64738;SDS011;51175;51.186;0.276;2023-12-07T01:23:52;26.40;;;14.40;;
64738;SDS011;51175;51.186;0.276;2023-12-07T01:24:22;25.88;;;14.80;;
64738;SDS011;51175;51.186;0.276;2023-12-07T01:24:52;23.50;;;15.10;;
64738;SDS011;51175;51.186;0.276;2023-12-07T01:25:23;21.08;;;15.00;;
64738;SDS011;51175;51.186;0.276;2023-12-07T01:25:54;26.02;;;14.50;;
64738;SDS011;51175;51.186;0.276;2023-12-07T01:26:24;24.85;;;13.77;;
64738;SDS011;51175;51.186;0.276;2023-12-07T01:26:55;23.20;;;13.80;;
64738;SDS011;51175;51.186;0.276;2023-12-07T01:27:26;23.50;;;14.82;;
64738;SDS011;51175;51.186;0.276;2023-12-07T01:27:56;29.08;;;15.25;;
64738;SDS011;51175;51.186;0.276;2023-12-07T01:28:27;22.58;;;15.10;;
64738;SDS011;51175;51.186;0.276;2023-12-07T01:28:58;27.25;;;15.82;;
64738;SDS011;51175;51.186;0.276;2023-12-07T01:29:28;22.02;;;15.45;;
64738;SDS011;51175;51.186;0.276;2023-12-07T01:29:59;25.25;;;15.23;;
64738;SDS011;51175;51.186;0.276;2023-12-07T01:30:29;22.95;;;14.18;;
64738;SDS011;51175;51.186;0.276;2023-12-07T01:31:00;28.77;;;15.93;;
64738;SDS011;51175;51.186;0.276;2023-12-07T01:31:31;24.65;;;15.70;;
64738;SDS011;51175;51.186;0.276;2023-12-07T01:32:01;21.55;;;14.50;;
64738;SDS011;51175;51.186;0.276;2023-12-07T01:32:32;23.02;;;15.27;;
64738;SDS011;51175;51.186;0.276;2023-12-07T01:33:02;21.20;;;14.07;;
64738;SDS011;51175;51.186;0.276;2023-12-07T01:33:33;19.48;;;13.38;;
64738;SDS011;51175;51.186;0.276;2023-12-07T01:34:03;25.13;;;13.40;;
64738;SDS011;51175;51.186;0.276;2023-12-07T01:34:34;23.05;;;14.05;;
64738;SDS011;51175;51.186;0.276;2023-12-07T01:35:05;21.17;;;13.98;;
64738;SDS011;51175;51.186;0.276;2023-12-07T01:35:35;23.25;;;14.40;;
64738;SDS011;51175;51.186;0.276;2023-12-07T01:36:06;25.35;;;16.23;;
64738;SDS011;51175;51.186;0.276;2023-12-07T01:36:37;27.48;;;13.57;;
64738;SDS011;51175;51.186;0.276;2023-12-07T01:37:08;23.75;;;15.00;;
64738;SDS011;51175;51.186;0.276;2023-12-07T01:37:39;22.00;;;14.55;;
64738;SDS011;51175;51.186;0.276;2023-12-07T01:38:09;21.15;;;11.13;;
64738;SDS011;51175;51.186;0.276;2023-12-07T01:38:40;21.20;;;12.25;;
64738;SDS011;51175;51.186;0.276;2023-12-07T01:39:12;23.88;;;14.40;;
64738;SDS011;51175;51.186;0.276;2023-12-07T01:39:43;21.40;;;13.90;;
64738;SDS011;51175;51.186;0.276;2023-12-07T01:40:14;24.65;;;15.48;;
64738;SDS011;51175;51.186;0.276;2023-12-07T01:40:45;25.02;;;16.23;;
64738;SDS011;51175;51.186;0.276;2023-12-07T01:41:15;25.35;;;16.17;;
64738;SDS011;51175;51.186;0.276;2023-12-07T01:41:46;24.75;;;16.00;;
64738;SDS011;51175;51.186;0.276;2023-12-07T01:42:16;23.58;;;15.18;;
64738;SDS011;51175;51.186;0.276;2023-12-07T01:42:53;22.17;;;14.57;;
64738;SDS011;51175;51.186;0.276;2023-12-07T01:43:23;24.65;;;13.65;;
64738;SDS011;51175;51.186;0.276;2023-12-07T01:43:54;21.40;;;14.32;;
64738;SDS011;51175;51.186;0.276;2023-12-07T01:44:24;22.92;;;15.68;;
64738;SDS011;51175;51.186;0.276;2023-12-07T01:44:57;27.27;;;14.65;;
64738;SDS011;51175;51.186;0.276;2023-12-07T01:45:27;27.48;;;15.60;;
64738;SDS011;51175;51.186;0.276;2023-12-07T01:45:57;28.65;;;16.23;;
64738;SDS011;51175;51.186;0.276;2023-12-07T01:46:28;25.00;;;14.60;;
64738;SDS011;51175;51.186;0.276;2023-12-07T01:46:59;21.17;;;13.65;;
64738;SDS011;51175;51.186;0.276;2023-12-07T01:47:30;26.70;;;15.13;;
64738;SDS011;51175;51.186;0.276;2023-12-07T01:48:01;23.88;;;14.93;;
64738;SDS011;51175;51.186;0.276;2023-12-07T01:48:31;23.20;;;14.68;;
64738;SDS011;51175;51.186;0.276;2023-12-07T01:49:02;23.13;;;14.40;;
64738;SDS011;51175;51.186;0.276;2023-12-07T01:49:32;19.95;;;12.73;;
64738;SDS011;51175;51.186;0.276;2023-12-07T01:50:04;19.92;;;13.40;;
64738;SDS011;51175;51.186;0.276;2023-12-07T01:50:35;24.45;;;13.00;;
64738;SDS011;51175;51.186;0.276;2023-12-07T01:51:06;22.83;;;12.30;;
64738;SDS011;51175;51.186;0.276;2023-12-07T01:51:37;22.85;;;13.52;;
64738;SDS011;51175;51.186;0.276;2023-12-07T01:52:08;22.45;;;14.05;;
64738;SDS011;51175;51.186;0.276;2023-12-07T01:52:43;22.63;;;15.07;;
64738;SDS011;51175;51.186;0.276;2023-12-07T01:53:17;22.58;;;13.70;;
64738;SDS011;51175;51.186;0.276;2023-12-07T01:53:48;25.25;;;13.93;;
64738;SDS011;51175;51.186;0.276;2023-12-07T01:54:19;23.58;;;13.23;;
64738;SDS011;51175;51.186;0.276;2023-12-07T01:54:51;22.05;;;12.38;;
64738;SDS011;51175;51.186;0.276;2023-12-07T01:55:22;20.27;;;11.13;;
64738;SDS011;51175;51.186;0.276;2023-12-07T01:55:54;18.70;;;11.73;;
64738;SDS011;51175;51.186;0.276;2023-12-07T01:56:25;16.42;;;9.13;;
64738;SDS011;51175;51.186;0.276;2023-12-07T01:56:56;20.30;;;12.93;;
64738;SDS011;51175;51.186;0.276;2023-12-07T01:57:27;17.83;;;11.02;;
64738;SDS011;51175;51.186;0.276;2023-12-07T01:57:57;19.25;;;10.35;;
64738;SDS011;51175;51.186;0.276;2023-12-07T01:58:28;20.25;;;11.70;;
64738;SDS011;51175;51.186;0.276;2023-12-07T01:58:59;19.80;;;11.43;;
64738;SDS011;51175;51.186;0.276;2023-12-07T01:59:29;21.50;;;10.30;;
64738;SDS011;51175;51.186;0.276;2023-12-07T02:00:02;18.20;;;7.97;;
64738;SDS011;51175;51.186;0.276;2023-12-07T02:00:34;19.58;;;8.68;;
64738;SDS011;51175;51.186;0.276;2023-12-07T02:01:05;14.57;;;6.05;;
64738;SDS011;51175;51.186;0.276;2023-12-07T02:01:36;23.40;;;7.85;;
64738;SDS011;51175;51.186;0.276;2023-12-07T02:02:06;20.27;;;8.98;;
64738;SDS011;51175;51.186;0.276;2023-12-07T02:02:37;18.73;;;7.65;;
64738;SDS011;51175;51.186;0.276;2023-12-07T02:03:08;14.82;;;7.03;;
64738;SDS011;51175;51.186;0.276;2023-12-07T02:03:41;14.55;;;6.65;;
64738;SDS011;51175;51.186;0.276;2023-12-07T02:04:12;19.38;;;6.18;;
64738;SDS011;51175;51.186;0.276;2023-12-07T02:04:43;11.55;;;6.10;;
64738;SDS011;51175;51.186;0.276;2023-12-07T02:05:15;17.63;;;6.75;;
64738;SDS011;51175;51.186;0.276;2023-12-07T02:05:47;13.50;;;7.10;;
64738;SDS011;51175;51.186;0.276;2023-12-07T02:06:21;13.20;;;7.32;;
64738;SDS011;51175;51.186;0.276;2023-12-07T02:06:52;11.90;;;6.07;;
64738;SDS011;51175;51.186;0.276;2023-12-07T02:07:27;15.65;;;6.63;;
64738;SDS011;51175;51.186;0.276;2023-12-07T02:07:58;9.23;;;5.40;;
64738;SDS011;51175;51.186;0.276;2023-12-07T02:08:28;19.67;;;7.07;;
64738;SDS011;51175;51.186;0.276;2023-12-07T02:09:00;21.88;;;6.90;;
64738;SDS011;51175;51.186;0.276;2023-12-07T02:09:31;16.67;;;7.78;;
64738;SDS011;51175;51.186;0.276;2023-12-07T02:10:03;19.13;;;7.80;;
64738;SDS011;51175;51.186;0.276;2023-12-07T02:10:34;13.30;;;5.97;;
64738;SDS011;51175;51.186;0.276;2023-12-07T02:11:05;13.73;;;6.22;;
64738;SDS011;51175;51.186;0.276;2023-12-07T02:11:35;14.50;;;6.43;;
64738;SDS011;51175;51.186;0.276;2023-12-07T02:12:06;16.35;;;6.18;;
64738;SDS011;51175;51.186;0.276;2023-12-07T02:12:36;14.07;;;6.13;;
64738;SDS011;51175;51.186;0.276;2023-12-07T02:13:07;18.10;;;6.90;;
64738;SDS011;51175;51.186;0.276;2023-12-07T02:13:39;13.52;;;5.45;;
64738;SDS011;51175;51.186;0.276;2023-12-07T02:14:11;18.35;;;6.32;;
64738;SDS011;51175;51.186;0.276;2023-12-07T02:14:42;18.45;;;6.60;;
64738;SDS011;51175;51.186;0.276;2023-12-07T02:15:13;23.05;;;7.50;;
64738;SDS011;51175;51.186;0.276;2023-12-07T02:15:44;15.77;;;5.80;;
64738;SDS011;51175;51.186;0.276;2023-12-07T02:16:18;14.95;;;5.72;;
64738;SDS011;51175;51.186;0.276;2023-12-07T02:16:59;15.52;;;6.70;;
64738;SDS011;51175;51.186;0.276;2023-12-07T02:17:35;14.80;;;6.20;;
64738;SDS011;51175;51.186;0.276;2023-12-07T02:18:32;14.57;;;5.32;;
64738;SDS011;51175;51.186;0.276;2023-12-07T02:21:00;16.42;;;6.85;;
64738;SDS011;51175;51.186;0.276;2023-12-07T02:21:37;14.68;;;5.32;;
64738;SDS011;51175;51.186;0.276;2023-12-07T02:22:12;13.82;;;5.82;;
64738;SDS011;51175;51.186;0.276;2023-12-07T02:22:54;9.95;;;4.90;;
64738;SDS011;51175;51.186;0.276;2023-12-07T02:23:26;16.58;;;5.20;;
64738;SDS011;51175;51.186;0.276;2023-12-07T02:23:59;17.17;;;5.78;;
64738;SDS011;51175;51.186;0.276;2023-12-07T02:24:33;14.43;;;6.75;;
64738;SDS011;51175;51.186;0.276;2023-12-07T02:25:08;19.73;;;6.05;;
64738;SDS011;51175;51.186;0.276;2023-12-07T02:25:44;11.32;;;6.03;;
64738;SDS011;51175;51.186;0.276;2023-12-07T02:26:20;19.52;;;5.47;;
64738;SDS011;51175;51.186;0.276;2023-12-07T02:26:54;12.52;;;6.18;;
64738;SDS011;51175;51.186;0.276;2023-12-07T02:27:42;16.10;;;5.45;;
64738;SDS011;51175;51.186;0.276;2023-12-07T02:28:13;17.90;;;6.10;;
64738;SDS011;51175;51.186;0.276;2023-12-07T02:28:43;26.98;;;6.55;;
64738;SDS011;51175;51.186;0.276;2023-12-07T02:29:14;12.30;;;5.15;;
64738;SDS011;51175;51.186;0.276;2023-12-07T02:29:44;20.10;;;6.28;;
64738;SDS011;51175;51.186;0.276;2023-12-07T02:30:15;20.40;;;6.40;;
64738;SDS011;51175;51.186;0.276;2023-12-07T02:30:46;13.93;;;5.70;;
64738;SDS011;51175;51.186;0.276;2023-12-07T02:31:22;13.60;;;5.00;;
64738;SDS011;51175;51.186;0.276;2023-12-07T02:31:53;14.60;;;6.13;;
64738;SDS011;51175;51.186;0.276;2023-12-07T02:32:25;16.20;;;5.32;;
64738;SDS011;51175;51.186;0.276;2023-12-07T02:32:56;19.33;;;6.05;;
64738;SDS011;51175;51.186;0.276;2023-12-07T02:33:27;12.65;;;5.45;;
64738;SDS011;51175;51.186;0.276;2023-12-07T02:33:57;15.95;;;7.25;;
64738;SDS011;51175;51.186;0.276;2023-12-07T02:34:28;13.93;;;5.70;;
64738;SDS011;51175;51.186;0.276;2023-12-07T02:34:59;16.10;;;6.93;;
64738;SDS011;51175;51.186;0.276;2023-12-07T02:35:30;12.98;;;5.55;;
64738;SDS011;51175;51.186;0.276;2023-12-07T02:36:01;19.52;;;7.15;;
64738;SDS011;51175;51.186;0.276;2023-12-07T02:36:32;13.35;;;6.88;;
64738;SDS011;51175;51.186;0.276;2023-12-07T02:37:05;14.73;;;5.47;;
64738;SDS011;51175;51.186;0.276;2023-12-07T02:37:41;14.98;;;4.97;;
64738;SDS011;51175;51.186;0.276;2023-12-07T02:38:14;16.42;;;6.50;;
64738;SDS011;51175;51.186;0.276;2023-12-07T02:38:46;15.20;;;6.88;;
64738;SDS011;51175;51.186;0.276;2023-12-07T02:39:20;14.10;;;6.32;;
64738;SDS011;51175;51.186;0.276;2023-12-07T02:39:51;17.20;;;6.53;;
64738;SDS011;51175;51.186;0.276;2023-12-07T02:40:24;14.52;;;5.47;;
64738;SDS011;51175;51.186;0.276;2023-12-07T02:40:56;11.48;;;6.38;;
64738;SDS011;51175;51.186;0.276;2023-12-07T02:41:30;18.15;;;7.43;;
64738;SDS011;51175;51.186;0.276;2023-12-07T02:42:02;16.52;;;6.30;;
64738;SDS011;51175;51.186;0.276;2023-12-07T02:42:33;13.80;;;5.88;;
64738;SDS011;51175;51.186;0.276;2023-12-07T02:43:03;15.90;;;6.10;;
64738;SDS011;51175;51.186;0.276;2023-12-07T02:43:34;16.95;;;6.07;;
64738;SDS011;51175;51.186;0.276;2023-12-07T02:44:05;13.25;;;6.32;;
64738;SDS011;51175;51.186;0.276;2023-12-07T02:44:36;15.48;;;6.78;;
64738;SDS011;51175;51.186;0.276;2023-12-07T02:45:12;13.82;;;4.88;;
64738;SDS011;51175;51.186;0.276;2023-12-07T02:45:43;10.93;;;4.95;;
64738;SDS011;51175;51.186;0.276;2023-12-07T02:46:14;13.80;;;4.82;;
64738;SDS011;51175;51.186;0.276;2023-12-07T02:46:45;16.63;;;5.20;;
64738;SDS011;51175;51.186;0.276;2023-12-07T02:47:15;14.70;;;6.38;;
64738;SDS011;51175;51.186;0.276;2023-12-07T02:47:47;18.02;;;5.70;;
64738;SDS011;51175;51.186;0.276;2023-12-07T02:48:17;14.95;;;5.47;;
64738;SDS011;51175;51.186;0.276;2023-12-07T02:48:49;12.23;;;5.72;;
64738;SDS011;51175;51.186;0.276;2023-12-07T02:49:19;14.60;;;5.72;;
64738;SDS011;51175;51.186;0.276;2023-12-07T02:49:50;15.02;;;5.95;;
64738;SDS011;51175;51.186;0.276;2023-12-07T02:50:20;15.88;;;4.95;;
64738;SDS011;51175;51.186;0.276;2023-12-07T02:50:52;13.90;;;6.63;;
64738;SDS011;51175;51.186;0.276;2023-12-07T02:51:22;12.60;;;5.55;;
64738;SDS011;51175;51.186;0.276;2023-12-07T02:51:53;14.18;;;5.70;;
64738;SDS011;51175;51.186;0.276;2023-12-07T02:52:25;13.23;;;6.25;;
64738;SDS011;51175;51.186;0.276;2023-12-07T02:52:56;18.02;;;5.90;;
64738;SDS011;51175;51.186;0.276;2023-12-07T02:53:33;12.00;;;5.60;;
64738;SDS011;51175;51.186;0.276;2023-12-07T02:54:04;18.85;;;5.70;;
64738;SDS011;51175;51.186;0.276;2023-12-07T02:54:37;13.10;;;5.35;;
64738;SDS011;51175;51.186;0.276;2023-12-07T02:55:07;17.20;;;5.13;;
64738;SDS011;51175;51.186;0.276;2023-12-07T02:55:39;15.57;;;5.82;;
64738;SDS011;51175;51.186;0.276;2023-12-07T02:56:09;15.82;;;5.43;;
64738;SDS011;51175;51.186;0.276;2023-12-07T02:56:40;10.35;;;5.15;;
64738;SDS011;51175;51.186;0.276;2023-12-07T02:57:10;12.40;;;5.05;;
64738;SDS011;51175;51.186;0.276;2023-12-07T02:57:41;12.65;;;5.38;;
64738;SDS011;51175;51.186;0.276;2023-12-07T02:58:11;15.45;;;5.45;;
64738;SDS011;51175;51.186;0.276;2023-12-07T02:58:42;13.88;;;5.32;;
64738;SDS011;51175;51.186;0.276;2023-12-07T02:59:12;12.75;;;5.10;;
64738;SDS011;51175;51.186;0.276;2023-12-07T02:59:43;10.35;;;4.93;;
64738;SDS011;51175;51.186;0.276;2023-12-07T03:00:13;20.25;;;5.63;;
64738;SDS011;51175;51.186;0.276;2023-12-07T03:00:45;17.70;;;5.70;;
64738;SDS011;51175;51.186;0.276;2023-12-07T03:01:15;23.20;;;8.00;;
64738;SDS011;51175;51.186;0.276;2023-12-07T03:01:46;16.00;;;5.03;;
64738;SDS011;51175;51.186;0.276;2023-12-07T03:02:16;14.80;;;4.78;;
64738;SDS011;51175;51.186;0.276;2023-12-07T03:02:47;12.63;;;4.75;;
64738;SDS011;51175;51.186;0.276;2023-12-07T03:03:18;17.42;;;6.65;;
64738;SDS011;51175;51.186;0.276;2023-12-07T03:03:48;17.90;;;5.22;;
64738;SDS011;51175;51.186;0.276;2023-12-07T03:04:19;13.48;;;5.10;;
64738;SDS011;51175;51.186;0.276;2023-12-07T03:04:49;12.85;;;4.75;;
64738;SDS011;51175;51.186;0.276;2023-12-07T03:05:19;20.60;;;6.38;;
64738;SDS011;51175;51.186;0.276;2023-12-07T03:05:51;13.43;;;4.95;;
64738;SDS011;51175;51.186;0.276;2023-12-07T03:06:22;13.48;;;4.38;;
64738;SDS011;51175;51.186;0.276;2023-12-07T03:06:52;14.20;;;5.35;;